Terminal Aerodrome Forecast
Issued by NWS Pittsburgh, PA

Current Version | Previous Version | Graphics & Text | Print | Product List | Glossary On
Versions: 1 2 3 4 5 6 7 8 9 10 11 12 13 14 15 16 17 18 19 20 21 22 23 24 25 26 27
000
FTUS41 KPBZ 160520
TAFPIT
TAF
KPIT 160520Z 1606/1712 09006KT P6SM BKN130 OVC210
     FM161500 14010KT P6SM SCT050 OVC200
     FM161800 16010G20KT P6SM -RA SCT025 OVC035
     FM170300 19007KT P6SM -RA OVC025=

USA.gov is the U.S. government's official web portal to all federal, state and local government web resources and services.